sensor_id;sensor_type;location;lat;lon;timestamp;temperature;humidity
21559;DHT22;10940;48.890;8.240;2023-02-28T00:00:21;-1.00;99.90
21559;DHT22;10940;48.890;8.240;2023-02-28T00:02:47;-1.00;99.90
21559;DHT22;10940;48.890;8.240;2023-02-28T00:05:15;-1.00;99.90
21559;DHT22;10940;48.890;8.240;2023-02-28T00:07:42;-1.00;99.90
21559;DHT22;10940;48.890;8.240;2023-02-28T00:10:12;-1.10;99.90
21559;DHT22;10940;48.890;8.240;2023-02-28T00:12:39;-1.00;99.90
21559;DHT22;10940;48.890;8.240;2023-02-28T00:15:09;-1.10;99.90
21559;DHT22;10940;48.890;8.240;2023-02-28T00:17:35;-1.10;99.90
21559;DHT22;10940;48.890;8.240;2023-02-28T00:20:02;-1.10;99.90
21559;DHT22;10940;48.890;8.240;2023-02-28T00:22:42;-1.10;99.90
21559;DHT22;10940;48.890;8.240;2023-02-28T00:25:10;-1.10;99.90
21559;DHT22;10940;48.890;8.240;2023-02-28T00:27:37;-1.20;99.90
21559;DHT22;10940;48.890;8.240;2023-02-28T00:30:03;-1.20;99.90
21559;DHT22;10940;48.890;8.240;2023-02-28T00:32:29;-1.30;99.90
21559;DHT22;10940;48.890;8.240;2023-02-28T00:34:55;-1.30;99.90
21559;DHT22;10940;48.890;8.240;2023-02-28T00:37:21;-1.30;99.90
21559;DHT22;10940;48.890;8.240;2023-02-28T00:39:46;-1.30;99.90
21559;DHT22;10940;48.890;8.240;2023-02-28T00:42:12;-1.30;99.90
21559;DHT22;10940;48.890;8.240;2023-02-28T00:44:37;-1.30;99.90
21559;DHT22;10940;48.890;8.240;2023-02-28T00:47:03;-1.30;99.90
21559;DHT22;10940;48.890;8.240;2023-02-28T00:49:29;-1.30;99.90
21559;DHT22;10940;48.890;8.240;2023-02-28T00:51:55;-1.40;99.90
21559;DHT22;10940;48.890;8.240;2023-02-28T00:54:21;-1.40;99.90
21559;DHT22;10940;48.890;8.240;2023-02-28T00:56:47;-1.40;99.90
21559;DHT22;10940;48.890;8.240;2023-02-28T00:59:15;-1.40;99.90
21559;DHT22;10940;48.890;8.240;2023-02-28T01:01:42;-1.40;99.90
21559;DHT22;10940;48.890;8.240;2023-02-28T01:04:08;-1.40;99.90
21559;DHT22;10940;48.890;8.240;2023-02-28T01:06:33;-1.30;99.90
21559;DHT22;10940;48.890;8.240;2023-02-28T01:09:00;-1.40;99.90
21559;DHT22;10940;48.890;8.240;2023-02-28T01:11:26;-1.30;99.90
21559;DHT22;10940;48.890;8.240;2023-02-28T01:13:52;-1.40;99.90
21559;DHT22;10940;48.890;8.240;2023-02-28T01:16:17;-1.40;99.90
21559;DHT22;10940;48.890;8.240;2023-02-28T01:18:43;-1.40;99.90
21559;DHT22;10940;48.890;8.240;2023-02-28T01:21:12;-1.40;99.90
21559;DHT22;10940;48.890;8.240;2023-02-28T01:23:38;-1.40;99.90
21559;DHT22;10940;48.890;8.240;2023-02-28T01:26:09;-1.40;99.90
21559;DHT22;10940;48.890;8.240;2023-02-28T01:28:35;-1.40;99.90
21559;DHT22;10940;48.890;8.240;2023-02-28T01:31:01;-1.40;99.90
21559;DHT22;10940;48.890;8.240;2023-02-28T01:33:27;-1.40;99.90
21559;DHT22;10940;48.890;8.240;2023-02-28T01:36:05;-1.40;99.90
21559;DHT22;10940;48.890;8.240;2023-02-28T01:38:31;-1.40;99.90
21559;DHT22;10940;48.890;8.240;2023-02-28T01:40:57;-1.40;99.90
21559;DHT22;10940;48.890;8.240;2023-02-28T01:43:31;-1.40;99.90
21559;DHT22;10940;48.890;8.240;2023-02-28T01:45:58;-1.40;99.90
21559;DHT22;10940;48.890;8.240;2023-02-28T01:48:37;-1.40;99.90
21559;DHT22;10940;48.890;8.240;2023-02-28T01:51:10;-1.40;99.90
21559;DHT22;10940;48.890;8.240;2023-02-28T01:53:45;-1.40;99.90
21559;DHT22;10940;48.890;8.240;2023-02-28T01:56:14;-1.40;99.90
21559;DHT22;10940;48.890;8.240;2023-02-28T01:58:47;-1.40;99.90
21559;DHT22;10940;48.890;8.240;2023-02-28T02:01:13;-1.40;99.90
21559;DHT22;10940;48.890;8.240;2023-02-28T02:03:50;-1.40;99.90
21559;DHT22;10940;48.890;8.240;2023-02-28T02:06:27;-1.30;99.90
21559;DHT22;10940;48.890;8.240;2023-02-28T02:08:54;-1.30;99.90
21559;DHT22;10940;48.890;8.240;2023-02-28T02:11:23;-1.40;99.90
21559;DHT22;10940;48.890;8.240;2023-02-28T02:19:27;-1.30;99.90
21559;DHT22;10940;48.890;8.240;2023-02-28T02:22:20;-1.40;99.90
21559;DHT22;10940;48.890;8.240;2023-02-28T02:30:33;-1.40;99.90
21559;DHT22;10940;48.890;8.240;2023-02-28T02:33:25;-1.40;99.90
21559;DHT22;10940;48.890;8.240;2023-02-28T02:36:02;-1.40;99.90
21559;DHT22;10940;48.890;8.240;2023-02-28T02:38:37;-1.40;99.90
21559;DHT22;10940;48.890;8.240;2023-02-28T02:41:12;-1.40;99.90
21559;DHT22;10940;48.890;8.240;2023-02-28T02:44:03;-1.40;99.90
21559;DHT22;10940;48.890;8.240;2023-02-28T02:46:33;-1.40;99.90
21559;DHT22;10940;48.890;8.240;2023-02-28T02:49:02;-1.50;99.90
21559;DHT22;10940;48.890;8.240;2023-02-28T02:51:30;-1.50;99.90
21559;DHT22;10940;48.890;8.240;2023-02-28T02:54:04;-1.50;99.90
21559;DHT22;10940;48.890;8.240;2023-02-28T02:56:31;-1.50;99.90
21559;DHT22;10940;48.890;8.240;2023-02-28T02:59:04;-1.60;99.90
21559;DHT22;10940;48.890;8.240;2023-02-28T03:01:32;-1.60;99.90
21559;DHT22;10940;48.890;8.240;2023-02-28T03:04:05;-1.60;99.90
21559;DHT22;10940;48.890;8.240;2023-02-28T03:06:32;-1.60;99.90
21559;DHT22;10940;48.890;8.240;2023-02-28T03:08:57;-1.60;99.90
21559;DHT22;10940;48.890;8.240;2023-02-28T03:11:24;-1.70;99.90
21559;DHT22;10940;48.890;8.240;2023-02-28T03:25:29;-1.70;99.90
21559;DHT22;10940;48.890;8.240;2023-02-28T03:28:32;-1.70;99.90
21559;DHT22;10940;48.890;8.240;2023-02-28T03:33:58;-1.70;99.90
21559;DHT22;10940;48.890;8.240;2023-02-28T03:36:31;-1.80;99.90
21559;DHT22;10940;48.890;8.240;2023-02-28T03:39:03;-1.80;99.90
21559;DHT22;10940;48.890;8.240;2023-02-28T03:41:45;-1.80;99.90
21559;DHT22;10940;48.890;8.240;2023-02-28T03:44:21;-1.80;99.90
21559;DHT22;10940;48.890;8.240;2023-02-28T03:49:48;-1.70;99.90
21559;DHT22;10940;48.890;8.240;2023-02-28T03:52:17;-1.70;99.90
21559;DHT22;10940;48.890;8.240;2023-02-28T03:54:47;-1.70;99.90
21559;DHT22;10940;48.890;8.240;2023-02-28T03:59:56;-1.60;99.90
21559;DHT22;10940;48.890;8.240;2023-02-28T04:02:23;-1.50;99.90
21559;DHT22;10940;48.890;8.240;2023-02-28T04:04:48;-1.40;99.90
21559;DHT22;10940;48.890;8.240;2023-02-28T04:07:14;-1.30;99.90
21559;DHT22;10940;48.890;8.240;2023-02-28T04:09:40;-1.30;99.90
21559;DHT22;10940;48.890;8.240;2023-02-28T04:12:06;-1.20;99.90
21559;DHT22;10940;48.890;8.240;2023-02-28T04:14:31;-1.20;99.90
21559;DHT22;10940;48.890;8.240;2023-02-28T04:16:57;-1.10;99.90
21559;DHT22;10940;48.890;8.240;2023-02-28T04:19:23;-1.10;99.90
21559;DHT22;10940;48.890;8.240;2023-02-28T04:21:50;-1.00;99.90
21559;DHT22;10940;48.890;8.240;2023-02-28T04:24:22;-1.00;99.90
21559;DHT22;10940;48.890;8.240;2023-02-28T04:26:53;-0.90;99.90
21559;DHT22;10940;48.890;8.240;2023-02-28T04:29:27;-0.90;99.90
21559;DHT22;10940;48.890;8.240;2023-02-28T04:31:53;-0.90;99.90
21559;DHT22;10940;48.890;8.240;2023-02-28T04:34:20;-0.80;99.90
21559;DHT22;10940;48.890;8.240;2023-02-28T04:36:47;-0.80;99.90
21559;DHT22;10940;48.890;8.240;2023-02-28T04:39:19;-0.80;99.90
21559;DHT22;10940;48.890;8.240;2023-02-28T04:41:45;-0.80;99.90
21559;DHT22;10940;48.890;8.240;2023-02-28T04:44:11;-0.80;99.90
21559;DHT22;10940;48.890;8.240;2023-02-28T04:46:37;-0.90;99.90
21559;DHT22;10940;48.890;8.240;2023-02-28T04:49:02;-0.80;99.90
21559;DHT22;10940;48.890;8.240;2023-02-28T04:51:28;-0.80;99.90
21559;DHT22;10940;48.890;8.240;2023-02-28T04:53:54;-0.80;99.90
21559;DHT22;10940;48.890;8.240;2023-02-28T04:56:20;-0.90;99.90
21559;DHT22;10940;48.890;8.240;2023-02-28T04:58:46;-0.90;99.90
21559;DHT22;10940;48.890;8.240;2023-02-28T05:03:49;-1.00;99.90
21559;DHT22;10940;48.890;8.240;2023-02-28T05:06:16;-1.00;99.90
21559;DHT22;10940;48.890;8.240;2023-02-28T05:08:42;-1.10;99.90
21559;DHT22;10940;48.890;8.240;2023-02-28T05:11:20;-1.10;99.90
21559;DHT22;10940;48.890;8.240;2023-02-28T05:13:46;-1.10;99.90
21559;DHT22;10940;48.890;8.240;2023-02-28T05:16:11;-1.20;99.90
21559;DHT22;10940;48.890;8.240;2023-02-28T05:18:37;-1.10;99.90
21559;DHT22;10940;48.890;8.240;2023-02-28T05:21:03;-1.10;99.90
21559;DHT22;10940;48.890;8.240;2023-02-28T05:23:29;-1.20;99.90
21559;DHT22;10940;48.890;8.240;2023-02-28T05:25:54;-1.10;99.90
21559;DHT22;10940;48.890;8.240;2023-02-28T05:28:20;-1.10;99.90
21559;DHT22;10940;48.890;8.240;2023-02-28T05:30:46;-1.10;99.90
21559;DHT22;10940;48.890;8.240;2023-02-28T05:33:12;-1.20;99.90
21559;DHT22;10940;48.890;8.240;2023-02-28T05:35:42;-1.20;99.90
21559;DHT22;10940;48.890;8.240;2023-02-28T05:38:10;-1.20;99.90
21559;DHT22;10940;48.890;8.240;2023-02-28T05:40:38;-1.20;99.90
21559;DHT22;10940;48.890;8.240;2023-02-28T05:43:04;-1.20;99.90
21559;DHT22;10940;48.890;8.240;2023-02-28T05:45:30;-1.30;99.90
21559;DHT22;10940;48.890;8.240;2023-02-28T05:47:56;-1.30;99.90
21559;DHT22;10940;48.890;8.240;2023-02-28T05:50:21;-1.30;99.90
21559;DHT22;10940;48.890;8.240;2023-02-28T05:52:50;-1.30;99.90
21559;DHT22;10940;48.890;8.240;2023-02-28T05:55:16;-1.20;99.90
21559;DHT22;10940;48.890;8.240;2023-02-28T05:57:42;-1.30;99.90
21559;DHT22;10940;48.890;8.240;2023-02-28T06:00:08;-1.30;99.90
21559;DHT22;10940;48.890;8.240;2023-02-28T06:02:34;-1.20;99.90
21559;DHT22;10940;48.890;8.240;2023-02-28T06:05:00;-1.20;99.90
21559;DHT22;10940;48.890;8.240;2023-02-28T06:07:25;-1.20;99.90
21559;DHT22;10940;48.890;8.240;2023-02-28T06:09:51;-1.10;99.90
21559;DHT22;10940;48.890;8.240;2023-02-28T06:12:16;-1.10;99.90
21559;DHT22;10940;48.890;8.240;2023-02-28T06:14:42;-1.10;99.90
21559;DHT22;10940;48.890;8.240;2023-02-28T06:17:08;-1.00;99.90
21559;DHT22;10940;48.890;8.240;2023-02-28T06:19:34;-1.00;99.90
21559;DHT22;10940;48.890;8.240;2023-02-28T06:22:00;-1.00;99.90
21559;DHT22;10940;48.890;8.240;2023-02-28T06:24:26;-1.00;99.90
21559;DHT22;10940;48.890;8.240;2023-02-28T06:26:53;-0.90;99.90
21559;DHT22;10940;48.890;8.240;2023-02-28T06:29:19;-0.90;99.90
21559;DHT22;10940;48.890;8.240;2023-02-28T06:31:45;-0.90;99.90
21559;DHT22;10940;48.890;8.240;2023-02-28T06:34:12;-0.80;99.90
21559;DHT22;10940;48.890;8.240;2023-02-28T06:36:39;-0.80;99.90
21559;DHT22;10940;48.890;8.240;2023-02-28T06:39:05;-0.80;99.90
21559;DHT22;10940;48.890;8.240;2023-02-28T06:41:30;-0.70;99.90
21559;DHT22;10940;48.890;8.240;2023-02-28T06:43:56;-0.70;99.90
21559;DHT22;10940;48.890;8.240;2023-02-28T06:46:23;-0.60;99.90
21559;DHT22;10940;48.890;8.240;2023-02-28T06:48:49;-0.60;99.90
21559;DHT22;10940;48.890;8.240;2023-02-28T06:51:17;-0.50;99.90
21559;DHT22;10940;48.890;8.240;2023-02-28T06:53:45;-0.50;99.90
21559;DHT22;10940;48.890;8.240;2023-02-28T06:56:13;-0.50;99.90
21559;DHT22;10940;48.890;8.240;2023-02-28T06:58:39;-0.40;99.90
21559;DHT22;10940;48.890;8.240;2023-02-28T07:01:06;-0.40;99.90
21559;DHT22;10940;48.890;8.240;2023-02-28T07:03:32;-0.40;99.90
21559;DHT22;10940;48.890;8.240;2023-02-28T07:05:58;-0.30;99.90
21559;DHT22;10940;48.890;8.240;2023-02-28T07:08:24;-0.30;99.90
21559;DHT22;10940;48.890;8.240;2023-02-28T07:10:54;-0.30;99.90
21559;DHT22;10940;48.890;8.240;2023-02-28T07:13:20;-0.30;99.90
21559;DHT22;10940;48.890;8.240;2023-02-28T07:16:14;-0.20;99.90
21559;DHT22;10940;48.890;8.240;2023-02-28T07:18:39;-0.10;99.90
21559;DHT22;10940;48.890;8.240;2023-02-28T07:21:06;-0.10;99.90
21559;DHT22;10940;48.890;8.240;2023-02-28T07:23:32;-0.10;99.90
21559;DHT22;10940;48.890;8.240;2023-02-28T07:25:58;-0.10;99.90
21559;DHT22;10940;48.890;8.240;2023-02-28T07:28:24;-0.10;99.90
21559;DHT22;10940;48.890;8.240;2023-02-28T07:30:49;0.00;99.90
21559;DHT22;10940;48.890;8.240;2023-02-28T07:33:16;0.00;99.90
21559;DHT22;10940;48.890;8.240;2023-02-28T07:35:41;0.00;99.90
21559;DHT22;10940;48.890;8.240;2023-02-28T07:38:08;0.10;99.90
21559;DHT22;10940;48.890;8.240;2023-02-28T07:40:34;0.10;99.90
21559;DHT22;10940;48.890;8.240;2023-02-28T07:43:01;0.20;99.90
21559;DHT22;10940;48.890;8.240;2023-02-28T07:45:27;0.20;99.90
21559;DHT22;10940;48.890;8.240;2023-02-28T07:47:57;0.30;99.90
21559;DHT22;10940;48.890;8.240;2023-02-28T07:50:23;0.30;99.90
21559;DHT22;10940;48.890;8.240;2023-02-28T07:52:49;0.40;99.90
21559;DHT22;10940;48.890;8.240;2023-02-28T07:55:14;0.40;99.90
21559;DHT22;10940;48.890;8.240;2023-02-28T07:57:42;0.50;99.90
21559;DHT22;10940;48.890;8.240;2023-02-28T08:00:09;0.50;99.90
21559;DHT22;10940;48.890;8.240;2023-02-28T08:02:35;0.50;99.90
21559;DHT22;10940;48.890;8.240;2023-02-28T08:05:01;0.60;99.90
21559;DHT22;10940;48.890;8.240;2023-02-28T08:07:27;0.60;99.90
21559;DHT22;10940;48.890;8.240;2023-02-28T08:09:53;0.60;99.90
21559;DHT22;10940;48.890;8.240;2023-02-28T08:12:18;0.60;99.90
21559;DHT22;10940;48.890;8.240;2023-02-28T08:14:44;0.70;99.90
21559;DHT22;10940;48.890;8.240;2023-02-28T08:17:10;0.70;99.90
21559;DHT22;10940;48.890;8.240;2023-02-28T08:19:36;0.80;99.90
21559;DHT22;10940;48.890;8.240;2023-02-28T08:22:01;0.80;99.90
21559;DHT22;10940;48.890;8.240;2023-02-28T08:24:27;0.90;99.90
21559;DHT22;10940;48.890;8.240;2023-02-28T08:26:53;0.90;99.90
21559;DHT22;10940;48.890;8.240;2023-02-28T08:29:18;0.90;99.90
21559;DHT22;10940;48.890;8.240;2023-02-28T08:31:44;0.90;99.90
21559;DHT22;10940;48.890;8.240;2023-02-28T08:34:12;0.90;99.90
21559;DHT22;10940;48.890;8.240;2023-02-28T08:36:39;0.90;99.90
21559;DHT22;10940;48.890;8.240;2023-02-28T08:39:05;0.90;99.90
21559;DHT22;10940;48.890;8.240;2023-02-28T08:41:31;0.90;99.90
21559;DHT22;10940;48.890;8.240;2023-02-28T08:43:57;0.90;99.90
21559;DHT22;10940;48.890;8.240;2023-02-28T08:46:24;0.90;99.90
21559;DHT22;10940;48.890;8.240;2023-02-28T08:48:54;1.00;99.90
21559;DHT22;10940;48.890;8.240;2023-02-28T08:51:21;1.00;99.90
21559;DHT22;10940;48.890;8.240;2023-02-28T08:53:52;1.00;99.90
21559;DHT22;10940;48.890;8.240;2023-02-28T08:56:18;1.00;99.90
21559;DHT22;10940;48.890;8.240;2023-02-28T08:58:44;1.10;99.90
21559;DHT22;10940;48.890;8.240;2023-02-28T09:01:13;1.10;99.90
21559;DHT22;10940;48.890;8.240;2023-02-28T09:03:40;1.20;99.90
21559;DHT22;10940;48.890;8.240;2023-02-28T09:06:10;1.30;99.90
21559;DHT22;10940;48.890;8.240;2023-02-28T09:08:36;1.30;99.90
21559;DHT22;10940;48.890;8.240;2023-02-28T09:11:02;1.30;99.90
21559;DHT22;10940;48.890;8.240;2023-02-28T09:13:29;1.30;99.90
21559;DHT22;10940;48.890;8.240;2023-02-28T09:15:57;1.30;99.90
21559;DHT22;10940;48.890;8.240;2023-02-28T09:18:23;1.30;99.90
21559;DHT22;10940;48.890;8.240;2023-02-28T09:20:49;1.30;99.90
21559;DHT22;10940;48.890;8.240;2023-02-28T09:23:15;1.30;99.90
21559;DHT22;10940;48.890;8.240;2023-02-28T09:25:49;1.40;99.90
21559;DHT22;10940;48.890;8.240;2023-02-28T09:28:16;1.40;99.90
21559;DHT22;10940;48.890;8.240;2023-02-28T09:30:45;1.40;99.90
21559;DHT22;10940;48.890;8.240;2023-02-28T09:33:11;1.50;99.90
21559;DHT22;10940;48.890;8.240;2023-02-28T09:35:37;1.50;99.90
21559;DHT22;10940;48.890;8.240;2023-02-28T09:38:03;1.50;99.90
21559;DHT22;10940;48.890;8.240;2023-02-28T09:40:29;1.50;99.90
21559;DHT22;10940;48.890;8.240;2023-02-28T09:42:57;1.50;99.90
21559;DHT22;10940;48.890;8.240;2023-02-28T09:45:37;1.50;99.90
21559;DHT22;10940;48.890;8.240;2023-02-28T09:48:17;1.60;99.90
21559;DHT22;10940;48.890;8.240;2023-02-28T09:50:48;1.60;99.90
21559;DHT22;10940;48.890;8.240;2023-02-28T09:53:35;1.60;99.90
21559;DHT22;10940;48.890;8.240;2023-02-28T09:56:10;1.70;99.90
21559;DHT22;10940;48.890;8.240;2023-02-28T09:58:47;1.80;99.90
21559;DHT22;10940;48.890;8.240;2023-02-28T10:01:25;2.00;99.90
21559;DHT22;10940;48.890;8.240;2023-02-28T10:04:07;2.00;99.90
21559;DHT22;10940;48.890;8.240;2023-02-28T10:06:44;2.00;99.90
21559;DHT22;10940;48.890;8.240;2023-02-28T10:09:18;2.00;99.90
21559;DHT22;10940;48.890;8.240;2023-02-28T10:11:49;2.00;99.90
21559;DHT22;10940;48.890;8.240;2023-02-28T10:14:21;2.00;99.90
21559;DHT22;10940;48.890;8.240;2023-02-28T10:17:22;2.10;99.90
21559;DHT22;10940;48.890;8.240;2023-02-28T10:22:22;2.10;99.90
21559;DHT22;10940;48.890;8.240;2023-02-28T10:24:53;2.10;99.90
21559;DHT22;10940;48.890;8.240;2023-02-28T10:27:20;2.10;99.90
21559;DHT22;10940;48.890;8.240;2023-02-28T10:29:50;2.10;99.90
21559;DHT22;10940;48.890;8.240;2023-02-28T10:32:19;2.20;99.90
21559;DHT22;10940;48.890;8.240;2023-02-28T10:34:52;2.10;99.90
21559;DHT22;10940;48.890;8.240;2023-02-28T10:37:19;2.10;99.90
21559;DHT22;10940;48.890;8.240;2023-02-28T10:39:46;2.10;99.90
21559;DHT22;10940;48.890;8.240;2023-02-28T10:42:26;2.20;99.90
21559;DHT22;10940;48.890;8.240;2023-02-28T10:45:16;2.20;99.90
21559;DHT22;10940;48.890;8.240;2023-02-28T10:50:44;2.30;99.90
21559;DHT22;10940;48.890;8.240;2023-02-28T10:55:36;2.30;99.90
21559;DHT22;10940;48.890;8.240;2023-02-28T10:58:01;2.30;99.90
21559;DHT22;10940;48.890;8.240;2023-02-28T11:00:33;2.40;99.90
21559;DHT22;10940;48.890;8.240;2023-02-28T11:02:59;2.30;99.90
21559;DHT22;10940;48.890;8.240;2023-02-28T11:05:31;2.50;99.90
21559;DHT22;10940;48.890;8.240;2023-02-28T11:08:16;2.50;99.90
21559;DHT22;10940;48.890;8.240;2023-02-28T11:10:54;2.60;99.90
21559;DHT22;10940;48.890;8.240;2023-02-28T11:13:33;2.60;99.90
21559;DHT22;10940;48.890;8.240;2023-02-28T11:16:03;2.60;99.90
21559;DHT22;10940;48.890;8.240;2023-02-28T11:18:33;2.50;99.90
21559;DHT22;10940;48.890;8.240;2023-02-28T11:21:02;2.50;99.90
21559;DHT22;10940;48.890;8.240;2023-02-28T11:23:30;2.60;99.90
21559;DHT22;10940;48.890;8.240;2023-02-28T11:26:00;2.70;99.90
21559;DHT22;10940;48.890;8.240;2023-02-28T11:36:27;3.00;99.90
21559;DHT22;10940;48.890;8.240;2023-02-28T11:39:15;3.00;99.90
21559;DHT22;10940;48.890;8.240;2023-02-28T11:41:55;3.10;99.90
21559;DHT22;10940;48.890;8.240;2023-02-28T11:44:43;3.20;99.90
21559;DHT22;10940;48.890;8.240;2023-02-28T11:55:27;3.50;99.90
21559;DHT22;10940;48.890;8.240;2023-02-28T12:01:03;3.70;99.90
21559;DHT22;10940;48.890;8.240;2023-02-28T12:20:37;4.10;99.90
21559;DHT22;10940;48.890;8.240;2023-02-28T12:23:10;4.10;99.90
21559;DHT22;10940;48.890;8.240;2023-02-28T12:26:14;4.10;99.90
21559;DHT22;10940;48.890;8.240;2023-02-28T12:28:49;4.10;99.90
21559;DHT22;10940;48.890;8.240;2023-02-28T12:31:35;4.10;99.90
21559;DHT22;10940;48.890;8.240;2023-02-28T12:34:06;4.20;99.90
21559;DHT22;10940;48.890;8.240;2023-02-28T12:36:35;4.40;99.90
21559;DHT22;10940;48.890;8.240;2023-02-28T12:39:12;4.30;99.90
21559;DHT22;10940;48.890;8.240;2023-02-28T12:44:14;4.70;99.90
21559;DHT22;10940;48.890;8.240;2023-02-28T12:46:47;4.80;99.90
21559;DHT22;10940;48.890;8.240;2023-02-28T12:49:22;4.90;99.90
21559;DHT22;10940;48.890;8.240;2023-02-28T12:51:50;5.00;99.90
21559;DHT22;10940;48.890;8.240;2023-02-28T12:54:40;5.00;99.90
21559;DHT22;10940;48.890;8.240;2023-02-28T12:57:31;5.00;99.90
21559;DHT22;10940;48.890;8.240;2023-02-28T13:00:04;5.10;99.90
21559;DHT22;10940;48.890;8.240;2023-02-28T13:02:52;5.20;99.90
21559;DHT22;10940;48.890;8.240;2023-02-28T13:11:32;5.30;99.90
21559;DHT22;10940;48.890;8.240;2023-02-28T13:14:03;5.30;99.90
21559;DHT22;10940;48.890;8.240;2023-02-28T13:16:55;5.30;99.90
21559;DHT22;10940;48.890;8.240;2023-02-28T13:19:22;5.30;99.90
21559;DHT22;10940;48.890;8.240;2023-02-28T13:21:50;5.50;99.90
21559;DHT22;10940;48.890;8.240;2023-02-28T13:24:42;5.60;99.90
21559;DHT22;10940;48.890;8.240;2023-02-28T13:29:39;5.80;99.90
21559;DHT22;10940;48.890;8.240;2023-02-28T13:39:59;6.50;99.90
21559;DHT22;10940;48.890;8.240;2023-02-28T13:42:34;6.40;99.90
21559;DHT22;10940;48.890;8.240;2023-02-28T13:56:25;6.30;99.90
21559;DHT22;10940;48.890;8.240;2023-02-28T13:59:07;6.40;99.90
21559;DHT22;10940;48.890;8.240;2023-02-28T14:07:07;6.30;99.90
21559;DHT22;10940;48.890;8.240;2023-02-28T14:09:40;6.20;99.90
21559;DHT22;10940;48.890;8.240;2023-02-28T14:18:23;5.90;99.90
21559;DHT22;10940;48.890;8.240;2023-02-28T14:20:54;6.00;99.90
21559;DHT22;10940;48.890;8.240;2023-02-28T14:31:44;6.60;99.90
21559;DHT22;10940;48.890;8.240;2023-02-28T14:36:59;6.90;99.90
21559;DHT22;10940;48.890;8.240;2023-02-28T14:39:26;7.00;99.90
21559;DHT22;10940;48.890;8.240;2023-02-28T14:41:53;7.10;99.90
21559;DHT22;10940;48.890;8.240;2023-02-28T14:44:21;7.10;99.90
21559;DHT22;10940;48.890;8.240;2023-02-28T14:49:28;6.90;99.90
21559;DHT22;10940;48.890;8.240;2023-02-28T14:52:19;6.90;99.90
21559;DHT22;10940;48.890;8.240;2023-02-28T14:54:46;6.90;99.90
21559;DHT22;10940;48.890;8.240;2023-02-28T14:57:39;6.70;99.90
21559;DHT22;10940;48.890;8.240;2023-02-28T15:00:23;6.70;99.90
21559;DHT22;10940;48.890;8.240;2023-02-28T15:02:50;6.50;99.90
21559;DHT22;10940;48.890;8.240;2023-02-28T15:07:42;6.30;99.90
21559;DHT22;10940;48.890;8.240;2023-02-28T15:12:49;6.30;99.90
21559;DHT22;10940;48.890;8.240;2023-02-28T15:15:17;6.20;99.90
21559;DHT22;10940;48.890;8.240;2023-02-28T15:17:45;6.10;99.90
21559;DHT22;10940;48.890;8.240;2023-02-28T15:20:14;6.00;99.90
21559;DHT22;10940;48.890;8.240;2023-02-28T15:22:41;6.00;99.90
21559;DHT22;10940;48.890;8.240;2023-02-28T15:25:10;6.00;99.90
21559;DHT22;10940;48.890;8.240;2023-02-28T15:27:44;5.90;99.90
21559;DHT22;10940;48.890;8.240;2023-02-28T15:30:20;5.90;99.90
21559;DHT22;10940;48.890;8.240;2023-02-28T15:33:21;5.80;99.90
21559;DHT22;10940;48.890;8.240;2023-02-28T15:35:48;5.80;99.90
21559;DHT22;10940;48.890;8.240;2023-02-28T15:38:18;5.70;99.90
21559;DHT22;10940;48.890;8.240;2023-02-28T15:40:55;5.70;99.90
21559;DHT22;10940;48.890;8.240;2023-02-28T15:46:11;5.50;99.90
21559;DHT22;10940;48.890;8.240;2023-02-28T15:48:55;5.50;99.90
21559;DHT22;10940;48.890;8.240;2023-02-28T15:51:29;5.50;99.90
21559;DHT22;10940;48.890;8.240;2023-02-28T15:54:01;5.50;99.90
21559;DHT22;10940;48.890;8.240;2023-02-28T15:56:32;5.50;99.90
21559;DHT22;10940;48.890;8.240;2023-02-28T15:59:03;5.50;99.90
21559;DHT22;10940;48.890;8.240;2023-02-28T16:01:32;5.50;99.90
21559;DHT22;10940;48.890;8.240;2023-02-28T16:04:05;5.40;99.90
21559;DHT22;10940;48.890;8.240;2023-02-28T16:06:34;5.40;99.90
21559;DHT22;10940;48.890;8.240;2023-02-28T16:09:01;5.40;99.90
21559;DHT22;10940;48.890;8.240;2023-02-28T16:11:26;5.40;99.90
21559;DHT22;10940;48.890;8.240;2023-02-28T16:13:53;5.40;99.90
21559;DHT22;10940;48.890;8.240;2023-02-28T16:16:22;5.30;99.90
21559;DHT22;10940;48.890;8.240;2023-02-28T16:18:48;5.30;99.90
21559;DHT22;10940;48.890;8.240;2023-02-28T16:21:13;5.30;99.90
21559;DHT22;10940;48.890;8.240;2023-02-28T16:23:39;5.20;99.90
21559;DHT22;10940;48.890;8.240;2023-02-28T16:26:05;5.20;99.90
21559;DHT22;10940;48.890;8.240;2023-02-28T16:28:34;5.10;99.90
21559;DHT22;10940;48.890;8.240;2023-02-28T16:31:00;5.00;99.90
21559;DHT22;10940;48.890;8.240;2023-02-28T16:33:30;5.00;99.90
21559;DHT22;10940;48.890;8.240;2023-02-28T16:35:56;4.90;99.90
21559;DHT22;10940;48.890;8.240;2023-02-28T16:38:21;4.90;99.90
21559;DHT22;10940;48.890;8.240;2023-02-28T16:40:49;4.80;99.90
21559;DHT22;10940;48.890;8.240;2023-02-28T16:43:19;4.70;99.90
21559;DHT22;10940;48.890;8.240;2023-02-28T16:45:46;4.60;99.90
21559;DHT22;10940;48.890;8.240;2023-02-28T16:48:14;4.60;99.90
21559;DHT22;10940;48.890;8.240;2023-02-28T16:50:40;4.60;99.90
21559;DHT22;10940;48.890;8.240;2023-02-28T16:53:05;4.50;99.90
21559;DHT22;10940;48.890;8.240;2023-02-28T16:55:31;4.50;99.90
21559;DHT22;10940;48.890;8.240;2023-02-28T16:58:00;4.40;99.90
21559;DHT22;10940;48.890;8.240;2023-02-28T17:00:28;4.40;99.90
21559;DHT22;10940;48.890;8.240;2023-02-28T17:02:55;4.30;99.90
21559;DHT22;10940;48.890;8.240;2023-02-28T17:05:21;4.30;99.90
21559;DHT22;10940;48.890;8.240;2023-02-28T17:07:47;4.20;99.90
21559;DHT22;10940;48.890;8.240;2023-02-28T17:10:19;4.10;99.90
21559;DHT22;10940;48.890;8.240;2023-02-28T17:12:45;4.00;99.90
21559;DHT22;10940;48.890;8.240;2023-02-28T17:15:12;4.00;99.90
21559;DHT22;10940;48.890;8.240;2023-02-28T17:17:38;3.90;99.90
21559;DHT22;10940;48.890;8.240;2023-02-28T17:20:04;3.90;99.90
21559;DHT22;10940;48.890;8.240;2023-02-28T17:22:31;3.80;99.90
21559;DHT22;10940;48.890;8.240;2023-02-28T17:24:56;3.80;99.90
21559;DHT22;10940;48.890;8.240;2023-02-28T17:27:24;3.70;99.90
21559;DHT22;10940;48.890;8.240;2023-02-28T17:29:50;3.70;99.90
21559;DHT22;10940;48.890;8.240;2023-02-28T17:32:16;3.60;99.90
21559;DHT22;10940;48.890;8.240;2023-02-28T17:34:42;3.60;99.90
21559;DHT22;10940;48.890;8.240;2023-02-28T17:37:09;3.60;99.90
21559;DHT22;10940;48.890;8.240;2023-02-28T17:39:35;3.50;99.90
21559;DHT22;10940;48.890;8.240;2023-02-28T17:42:01;3.50;99.90
21559;DHT22;10940;48.890;8.240;2023-02-28T17:44:28;3.50;99.90
21559;DHT22;10940;48.890;8.240;2023-02-28T17:46:54;3.50;99.90
21559;DHT22;10940;48.890;8.240;2023-02-28T17:49:20;3.40;99.90
21559;DHT22;10940;48.890;8.240;2023-02-28T17:51:46;3.50;99.90
21559;DHT22;10940;48.890;8.240;2023-02-28T17:54:12;3.30;99.90
21559;DHT22;10940;48.890;8.240;2023-02-28T17:56:40;3.30;99.90
21559;DHT22;10940;48.890;8.240;2023-02-28T17:59:05;3.30;99.90
21559;DHT22;10940;48.890;8.240;2023-02-28T18:01:31;3.20;99.90
21559;DHT22;10940;48.890;8.240;2023-02-28T18:03:56;3.20;99.90
21559;DHT22;10940;48.890;8.240;2023-02-28T18:06:25;3.20;99.90
21559;DHT22;10940;48.890;8.240;2023-02-28T18:08:53;3.20;99.90
21559;DHT22;10940;48.890;8.240;2023-02-28T18:11:20;3.10;99.90
21559;DHT22;10940;48.890;8.240;2023-02-28T18:13:47;3.10;99.90
21559;DHT22;10940;48.890;8.240;2023-02-28T18:16:13;3.00;99.90